sensor_id;sensor_type;location;lat;lon;timestamp;P1;durP1;ratioP1;P2;durP2;ratioP2
74375;SDS011;62812;55.188;61.302;2022-10-26T00:01:44;2.75;;;0.90;;
74375;SDS011;62812;55.188;61.302;2022-10-26T00:04:11;2.65;;;0.90;;
74375;SDS011;62812;55.188;61.302;2022-10-26T00:06:37;2.53;;;0.82;;
74375;SDS011;62812;55.188;61.302;2022-10-26T00:09:03;2.45;;;1.02;;
74375;SDS011;62812;55.188;61.302;2022-10-26T00:11:30;1.80;;;0.82;;
74375;SDS011;62812;55.188;61.302;2022-10-26T00:13:58;2.55;;;0.77;;
74375;SDS011;62812;55.188;61.302;2022-10-26T00:16:26;3.17;;;0.73;;
74375;SDS011;62812;55.188;61.302;2022-10-26T00:18:53;1.90;;;0.70;;
74375;SDS011;62812;55.188;61.302;2022-10-26T00:21:20;2.85;;;1.13;;
74375;SDS011;62812;55.188;61.302;2022-10-26T00:23:46;2.83;;;0.88;;
74375;SDS011;62812;55.188;61.302;2022-10-26T00:26:13;3.00;;;0.90;;
74375;SDS011;62812;55.188;61.302;2022-10-26T00:28:39;2.67;;;1.00;;
74375;SDS011;62812;55.188;61.302;2022-10-26T00:31:08;2.28;;;0.75;;
74375;SDS011;62812;55.188;61.302;2022-10-26T00:33:38;2.03;;;0.70;;
74375;SDS011;62812;55.188;61.302;2022-10-26T00:36:05;1.65;;;0.70;;
74375;SDS011;62812;55.188;61.302;2022-10-26T00:38:34;2.55;;;1.00;;
74375;SDS011;62812;55.188;61.302;2022-10-26T00:41:01;3.22;;;1.10;;
74375;SDS011;62812;55.188;61.302;2022-10-26T00:43:34;1.92;;;0.80;;
74375;SDS011;62812;55.188;61.302;2022-10-26T00:46:03;5.50;;;0.75;;
74375;SDS011;62812;55.188;61.302;2022-10-26T00:48:35;2.42;;;0.60;;
74375;SDS011;62812;55.188;61.302;2022-10-26T00:51:05;3.47;;;1.00;;
74375;SDS011;62812;55.188;61.302;2022-10-26T00:53:35;1.30;;;0.45;;
74375;SDS011;62812;55.188;61.302;2022-10-26T00:56:01;3.72;;;0.80;;
74375;SDS011;62812;55.188;61.302;2022-10-26T00:58:28;1.80;;;0.63;;
74375;SDS011;62812;55.188;61.302;2022-10-26T01:00:56;2.63;;;0.70;;
74375;SDS011;62812;55.188;61.302;2022-10-26T01:03:24;2.97;;;0.80;;
74375;SDS011;62812;55.188;61.302;2022-10-26T01:05:53;2.00;;;0.70;;
74375;SDS011;62812;55.188;61.302;2022-10-26T01:08:21;2.53;;;0.80;;
74375;SDS011;62812;55.188;61.302;2022-10-26T01:10:48;3.60;;;0.98;;
74375;SDS011;62812;55.188;61.302;2022-10-26T01:13:15;3.92;;;1.10;;
74375;SDS011;62812;55.188;61.302;2022-10-26T01:15:47;2.90;;;0.90;;
74375;SDS011;62812;55.188;61.302;2022-10-26T01:18:26;2.83;;;0.77;;
74375;SDS011;62812;55.188;61.302;2022-10-26T01:21:12;3.15;;;1.00;;
74375;SDS011;62812;55.188;61.302;2022-10-26T01:24:06;2.75;;;0.77;;
74375;SDS011;62812;55.188;61.302;2022-10-26T01:26:50;3.63;;;0.82;;
74375;SDS011;62812;55.188;61.302;2022-10-26T01:29:49;3.47;;;0.98;;
74375;SDS011;62812;55.188;61.302;2022-10-26T01:32:28;3.38;;;0.80;;
74375;SDS011;62812;55.188;61.302;2022-10-26T01:34:58;4.22;;;1.38;;
74375;SDS011;62812;55.188;61.302;2022-10-26T01:37:33;3.08;;;1.02;;
74375;SDS011;62812;55.188;61.302;2022-10-26T01:40:13;2.40;;;0.90;;
74375;SDS011;62812;55.188;61.302;2022-10-26T01:42:46;3.53;;;0.95;;
74375;SDS011;62812;55.188;61.302;2022-10-26T01:45:17;1.58;;;0.55;;
74375;SDS011;62812;55.188;61.302;2022-10-26T01:47:46;1.55;;;0.60;;
74375;SDS011;62812;55.188;61.302;2022-10-26T01:50:13;5.00;;;1.00;;
74375;SDS011;62812;55.188;61.302;2022-10-26T01:52:41;4.95;;;1.00;;
74375;SDS011;62812;55.188;61.302;2022-10-26T02:01:04;4.07;;;0.98;;
74375;SDS011;62812;55.188;61.302;2022-10-26T02:06:14;3.03;;;0.80;;
74375;SDS011;62812;55.188;61.302;2022-10-26T02:08:49;2.60;;;1.10;;
74375;SDS011;62812;55.188;61.302;2022-10-26T02:11:28;3.40;;;0.80;;
74375;SDS011;62812;55.188;61.302;2022-10-26T02:14:03;3.85;;;1.00;;
74375;SDS011;62812;55.188;61.302;2022-10-26T02:16:36;5.95;;;1.00;;
74375;SDS011;62812;55.188;61.302;2022-10-26T02:19:12;4.70;;;1.23;;
74375;SDS011;62812;55.188;61.302;2022-10-26T02:21:50;4.97;;;0.68;;
74375;SDS011;62812;55.188;61.302;2022-10-26T02:24:22;2.58;;;0.70;;
74375;SDS011;62812;55.188;61.302;2022-10-26T02:26:50;4.50;;;1.05;;
74375;SDS011;62812;55.188;61.302;2022-10-26T02:29:21;6.13;;;1.17;;
74375;SDS011;62812;55.188;61.302;2022-10-26T02:31:50;5.15;;;1.00;;
74375;SDS011;62812;55.188;61.302;2022-10-26T02:34:24;4.53;;;1.00;;
74375;SDS011;62812;55.188;61.302;2022-10-26T02:36:52;4.35;;;1.15;;
74375;SDS011;62812;55.188;61.302;2022-10-26T02:39:25;2.92;;;0.98;;
74375;SDS011;62812;55.188;61.302;2022-10-26T02:41:57;4.10;;;1.02;;
74375;SDS011;62812;55.188;61.302;2022-10-26T02:44:27;7.82;;;1.60;;
74375;SDS011;62812;55.188;61.302;2022-10-26T02:47:06;3.00;;;1.20;;
74375;SDS011;62812;55.188;61.302;2022-10-26T02:49:35;2.45;;;0.85;;
74375;SDS011;62812;55.188;61.302;2022-10-26T02:52:03;8.38;;;1.40;;
74375;SDS011;62812;55.188;61.302;2022-10-26T02:54:35;3.38;;;1.05;;
74375;SDS011;62812;55.188;61.302;2022-10-26T02:57:10;4.75;;;1.50;;
74375;SDS011;62812;55.188;61.302;2022-10-26T02:59:43;6.57;;;2.03;;
74375;SDS011;62812;55.188;61.302;2022-10-26T03:02:14;5.82;;;1.48;;
74375;SDS011;62812;55.188;61.302;2022-10-26T03:04:52;4.13;;;1.10;;
74375;SDS011;62812;55.188;61.302;2022-10-26T03:07:20;4.57;;;1.40;;
74375;SDS011;62812;55.188;61.302;2022-10-26T03:09:47;6.43;;;1.40;;
74375;SDS011;62812;55.188;61.302;2022-10-26T03:12:14;6.22;;;1.50;;
74375;SDS011;62812;55.188;61.302;2022-10-26T03:14:41;4.68;;;1.38;;
74375;SDS011;62812;55.188;61.302;2022-10-26T03:17:08;3.10;;;1.15;;
74375;SDS011;62812;55.188;61.302;2022-10-26T03:19:35;10.18;;;1.63;;
74375;SDS011;62812;55.188;61.302;2022-10-26T03:24:50;5.85;;;1.67;;
74375;SDS011;62812;55.188;61.302;2022-10-26T03:27:17;6.13;;;1.58;;
74375;SDS011;62812;55.188;61.302;2022-10-26T03:29:44;6.82;;;1.83;;
74375;SDS011;62812;55.188;61.302;2022-10-26T03:32:12;5.20;;;1.48;;
74375;SDS011;62812;55.188;61.302;2022-10-26T03:34:39;4.65;;;1.73;;
74375;SDS011;62812;55.188;61.302;2022-10-26T03:37:06;4.05;;;1.38;;
74375;SDS011;62812;55.188;61.302;2022-10-26T03:39:33;6.57;;;1.63;;
74375;SDS011;62812;55.188;61.302;2022-10-26T03:42:00;12.15;;;1.77;;
74375;SDS011;62812;55.188;61.302;2022-10-26T03:44:27;4.53;;;1.50;;
74375;SDS011;62812;55.188;61.302;2022-10-26T03:47:00;5.78;;;1.30;;
74375;SDS011;62812;55.188;61.302;2022-10-26T03:49:32;9.90;;;1.73;;
74375;SDS011;62812;55.188;61.302;2022-10-26T03:52:04;6.53;;;1.23;;
74375;SDS011;62812;55.188;61.302;2022-10-26T03:54:31;3.03;;;1.27;;
74375;SDS011;62812;55.188;61.302;2022-10-26T03:57:05;7.63;;;1.70;;
74375;SDS011;62812;55.188;61.302;2022-10-26T03:59:34;5.55;;;1.85;;
74375;SDS011;62812;55.188;61.302;2022-10-26T04:02:02;5.97;;;1.67;;
74375;SDS011;62812;55.188;61.302;2022-10-26T04:04:28;5.05;;;1.48;;
74375;SDS011;62812;55.188;61.302;2022-10-26T04:06:55;3.65;;;1.30;;
74375;SDS011;62812;55.188;61.302;2022-10-26T04:09:21;6.07;;;1.30;;
74375;SDS011;62812;55.188;61.302;2022-10-26T04:11:48;9.27;;;1.50;;
74375;SDS011;62812;55.188;61.302;2022-10-26T04:17:10;5.40;;;1.52;;
74375;SDS011;62812;55.188;61.302;2022-10-26T04:19:37;7.15;;;1.45;;
74375;SDS011;62812;55.188;61.302;2022-10-26T04:22:04;4.97;;;1.38;;
74375;SDS011;62812;55.188;61.302;2022-10-26T04:24:31;6.03;;;1.40;;
74375;SDS011;62812;55.188;61.302;2022-10-26T04:29:36;2.75;;;0.85;;
74375;SDS011;62812;55.188;61.302;2022-10-26T04:32:02;5.68;;;1.42;;
74375;SDS011;62812;55.188;61.302;2022-10-26T04:34:29;7.28;;;1.65;;
74375;SDS011;62812;55.188;61.302;2022-10-26T04:36:55;3.70;;;1.20;;
74375;SDS011;62812;55.188;61.302;2022-10-26T04:39:22;4.60;;;1.50;;
74375;SDS011;62812;55.188;61.302;2022-10-26T04:41:48;4.10;;;1.35;;
74375;SDS011;62812;55.188;61.302;2022-10-26T04:44:15;3.50;;;1.10;;
74375;SDS011;62812;55.188;61.302;2022-10-26T04:46:43;3.53;;;1.20;;
74375;SDS011;62812;55.188;61.302;2022-10-26T04:49:11;12.30;;;1.67;;
74375;SDS011;62812;55.188;61.302;2022-10-26T04:51:38;3.47;;;1.30;;
74375;SDS011;62812;55.188;61.302;2022-10-26T04:54:04;4.25;;;1.60;;
74375;SDS011;62812;55.188;61.302;2022-10-26T04:56:31;5.57;;;1.27;;
74375;SDS011;62812;55.188;61.302;2022-10-26T04:58:58;3.03;;;0.98;;
74375;SDS011;62812;55.188;61.302;2022-10-26T05:01:25;5.40;;;1.50;;
74375;SDS011;62812;55.188;61.302;2022-10-26T05:03:55;3.78;;;1.40;;
74375;SDS011;62812;55.188;61.302;2022-10-26T05:06:21;3.03;;;0.90;;
74375;SDS011;62812;55.188;61.302;2022-10-26T05:08:48;5.18;;;1.65;;
74375;SDS011;62812;55.188;61.302;2022-10-26T05:11:15;4.93;;;1.10;;
74375;SDS011;62812;55.188;61.302;2022-10-26T05:13:41;7.55;;;2.17;;
74375;SDS011;62812;55.188;61.302;2022-10-26T05:16:08;5.53;;;1.60;;
74375;SDS011;62812;55.188;61.302;2022-10-26T05:18:34;7.82;;;1.80;;
74375;SDS011;62812;55.188;61.302;2022-10-26T05:21:02;7.53;;;2.28;;
74375;SDS011;62812;55.188;61.302;2022-10-26T05:23:29;6.55;;;1.90;;
74375;SDS011;62812;55.188;61.302;2022-10-26T05:25:55;8.65;;;1.60;;
74375;SDS011;62812;55.188;61.302;2022-10-26T05:28:22;6.85;;;2.60;;
74375;SDS011;62812;55.188;61.302;2022-10-26T05:30:48;5.55;;;1.95;;
74375;SDS011;62812;55.188;61.302;2022-10-26T05:33:16;4.20;;;1.48;;
74375;SDS011;62812;55.188;61.302;2022-10-26T05:35:42;4.43;;;1.17;;
74375;SDS011;62812;55.188;61.302;2022-10-26T05:38:11;2.15;;;0.70;;
74375;SDS011;62812;55.188;61.302;2022-10-26T05:40:45;5.03;;;1.00;;
74375;SDS011;62812;55.188;61.302;2022-10-26T05:43:12;3.38;;;1.05;;
74375;SDS011;62812;55.188;61.302;2022-10-26T05:45:39;2.58;;;0.80;;
74375;SDS011;62812;55.188;61.302;2022-10-26T05:48:05;4.53;;;1.30;;
74375;SDS011;62812;55.188;61.302;2022-10-26T05:50:32;5.90;;;0.82;;
74375;SDS011;62812;55.188;61.302;2022-10-26T05:52:58;4.00;;;1.10;;
74375;SDS011;62812;55.188;61.302;2022-10-26T05:55:26;4.03;;;1.15;;
74375;SDS011;62812;55.188;61.302;2022-10-26T05:57:54;7.00;;;1.20;;
74375;SDS011;62812;55.188;61.302;2022-10-26T06:00:22;6.55;;;1.27;;
74375;SDS011;62812;55.188;61.302;2022-10-26T06:02:53;4.05;;;1.00;;
74375;SDS011;62812;55.188;61.302;2022-10-26T06:05:33;3.42;;;0.95;;
74375;SDS011;62812;55.188;61.302;2022-10-26T06:10:34;1.95;;;0.70;;
74375;SDS011;62812;55.188;61.302;2022-10-26T06:13:02;3.90;;;0.85;;
74375;SDS011;62812;55.188;61.302;2022-10-26T06:15:28;2.95;;;0.73;;
74375;SDS011;62812;55.188;61.302;2022-10-26T06:18:01;2.50;;;1.02;;
74375;SDS011;62812;55.188;61.302;2022-10-26T06:20:40;1.30;;;0.40;;
74375;SDS011;62812;55.188;61.302;2022-10-26T06:23:22;2.50;;;0.80;;
74375;SDS011;62812;55.188;61.302;2022-10-26T06:26:04;6.63;;;1.10;;
74375;SDS011;62812;55.188;61.302;2022-10-26T06:28:35;4.78;;;0.90;;
74375;SDS011;62812;55.188;61.302;2022-10-26T06:31:07;4.38;;;1.02;;
74375;SDS011;62812;55.188;61.302;2022-10-26T06:33:34;1.58;;;0.50;;
74375;SDS011;62812;55.188;61.302;2022-10-26T06:36:03;2.40;;;0.80;;
74375;SDS011;62812;55.188;61.302;2022-10-26T06:38:41;2.15;;;0.60;;
74375;SDS011;62812;55.188;61.302;2022-10-26T06:41:11;5.07;;;1.05;;
74375;SDS011;62812;55.188;61.302;2022-10-26T06:43:43;2.38;;;0.73;;
74375;SDS011;62812;55.188;61.302;2022-10-26T06:46:15;4.43;;;0.90;;
74375;SDS011;62812;55.188;61.302;2022-10-26T06:48:52;2.83;;;0.77;;
74375;SDS011;62812;55.188;61.302;2022-10-26T06:51:23;3.60;;;0.75;;
74375;SDS011;62812;55.188;61.302;2022-10-26T06:53:54;3.55;;;1.02;;
74375;SDS011;62812;55.188;61.302;2022-10-26T06:56:26;1.58;;;0.57;;
74375;SDS011;62812;55.188;61.302;2022-10-26T06:58:53;6.65;;;0.70;;
74375;SDS011;62812;55.188;61.302;2022-10-26T07:01:25;6.55;;;1.17;;
74375;SDS011;62812;55.188;61.302;2022-10-26T07:03:52;3.85;;;0.90;;
74375;SDS011;62812;55.188;61.302;2022-10-26T07:06:40;10.35;;;1.45;;
74375;SDS011;62812;55.188;61.302;2022-10-26T07:10:20;0.90;;;0.32;;
74375;SDS011;62812;55.188;61.302;2022-10-26T07:12:55;6.75;;;1.40;;
74375;SDS011;62812;55.188;61.302;2022-10-26T07:15:22;6.57;;;1.67;;
74375;SDS011;62812;55.188;61.302;2022-10-26T07:17:48;4.03;;;0.85;;
74375;SDS011;62812;55.188;61.302;2022-10-26T07:20:18;3.90;;;1.10;;
74375;SDS011;62812;55.188;61.302;2022-10-26T07:22:50;9.57;;;1.13;;
74375;SDS011;62812;55.188;61.302;2022-10-26T07:25:17;7.03;;;0.98;;
74375;SDS011;62812;55.188;61.302;2022-10-26T07:27:43;4.00;;;1.13;;
74375;SDS011;62812;55.188;61.302;2022-10-26T07:32:58;4.22;;;1.17;;
74375;SDS011;62812;55.188;61.302;2022-10-26T07:37:57;7.95;;;1.58;;
74375;SDS011;62812;55.188;61.302;2022-10-26T07:40:24;8.23;;;1.38;;
74375;SDS011;62812;55.188;61.302;2022-10-26T07:42:51;3.03;;;0.80;;
74375;SDS011;62812;55.188;61.302;2022-10-26T07:45:21;4.95;;;1.50;;
74375;SDS011;62812;55.188;61.302;2022-10-26T07:47:53;4.07;;;1.05;;
74375;SDS011;62812;55.188;61.302;2022-10-26T07:50:19;7.10;;;0.93;;
74375;SDS011;62812;55.188;61.302;2022-10-26T07:52:46;9.40;;;1.40;;
74375;SDS011;62812;55.188;61.302;2022-10-26T07:55:13;3.40;;;0.75;;
74375;SDS011;62812;55.188;61.302;2022-10-26T07:57:39;7.35;;;1.05;;
74375;SDS011;62812;55.188;61.302;2022-10-26T08:00:07;5.40;;;1.00;;
74375;SDS011;62812;55.188;61.302;2022-10-26T08:02:35;1.88;;;0.50;;
74375;SDS011;62812;55.188;61.302;2022-10-26T08:05:03;5.90;;;0.70;;
74375;SDS011;62812;55.188;61.302;2022-10-26T08:07:30;4.22;;;1.08;;
74375;SDS011;62812;55.188;61.302;2022-10-26T08:09:57;5.85;;;1.55;;
74375;SDS011;62812;55.188;61.302;2022-10-26T08:12:23;2.70;;;0.70;;
74375;SDS011;62812;55.188;61.302;2022-10-26T08:14:50;4.05;;;0.80;;
74375;SDS011;62812;55.188;61.302;2022-10-26T08:17:16;3.63;;;0.80;;
74375;SDS011;62812;55.188;61.302;2022-10-26T08:19:46;3.17;;;0.60;;
74375;SDS011;62812;55.188;61.302;2022-10-26T08:22:14;3.55;;;0.77;;
74375;SDS011;62812;55.188;61.302;2022-10-26T08:24:41;1.90;;;0.65;;
74375;SDS011;62812;55.188;61.302;2022-10-26T08:27:11;2.60;;;0.80;;
74375;SDS011;62812;55.188;61.302;2022-10-26T08:29:39;6.50;;;0.70;;
74375;SDS011;62812;55.188;61.302;2022-10-26T08:32:05;2.78;;;0.68;;
74375;SDS011;62812;55.188;61.302;2022-10-26T08:34:32;3.50;;;0.65;;
74375;SDS011;62812;55.188;61.302;2022-10-26T08:37:02;2.25;;;0.65;;
74375;SDS011;62812;55.188;61.302;2022-10-26T08:39:30;3.58;;;0.50;;
74375;SDS011;62812;55.188;61.302;2022-10-26T08:41:57;4.00;;;0.55;;
74375;SDS011;62812;55.188;61.302;2022-10-26T08:44:31;5.38;;;0.60;;
74375;SDS011;62812;55.188;61.302;2022-10-26T08:47:02;0.85;;;0.35;;
74375;SDS011;62812;55.188;61.302;2022-10-26T08:49:36;2.00;;;0.63;;
74375;SDS011;62812;55.188;61.302;2022-10-26T08:52:08;2.47;;;0.55;;
74375;SDS011;62812;55.188;61.302;2022-10-26T08:54:41;4.15;;;0.95;;
74375;SDS011;62812;55.188;61.302;2022-10-26T08:57:13;4.43;;;0.80;;
74375;SDS011;62812;55.188;61.302;2022-10-26T08:59:48;6.22;;;1.05;;
74375;SDS011;62812;55.188;61.302;2022-10-26T09:02:21;4.43;;;0.80;;
74375;SDS011;62812;55.188;61.302;2022-10-26T09:04:49;5.50;;;1.00;;
74375;SDS011;62812;55.188;61.302;2022-10-26T09:07:19;4.75;;;1.02;;
74375;SDS011;62812;55.188;61.302;2022-10-26T09:09:59;5.75;;;1.67;;
74375;SDS011;62812;55.188;61.302;2022-10-26T09:12:35;1.48;;;0.50;;
74375;SDS011;62812;55.188;61.302;2022-10-26T09:15:09;9.43;;;1.38;;
74375;SDS011;62812;55.188;61.302;2022-10-26T09:17:44;7.07;;;1.27;;
74375;SDS011;62812;55.188;61.302;2022-10-26T09:20:32;5.82;;;1.40;;
74375;SDS011;62812;55.188;61.302;2022-10-26T09:23:27;5.82;;;2.10;;
74375;SDS011;62812;55.188;61.302;2022-10-26T09:26:03;9.32;;;2.17;;
74375;SDS011;62812;55.188;61.302;2022-10-26T09:28:37;6.55;;;1.38;;
74375;SDS011;62812;55.188;61.302;2022-10-26T09:31:08;6.95;;;1.58;;
74375;SDS011;62812;55.188;61.302;2022-10-26T09:33:40;7.80;;;2.10;;
74375;SDS011;62812;55.188;61.302;2022-10-26T09:36:07;4.70;;;1.60;;
74375;SDS011;62812;55.188;61.302;2022-10-26T09:38:38;5.50;;;2.10;;
74375;SDS011;62812;55.188;61.302;2022-10-26T09:41:24;2.33;;;0.82;;
74375;SDS011;62812;55.188;61.302;2022-10-26T09:43:55;8.80;;;1.70;;
74375;SDS011;62812;55.188;61.302;2022-10-26T09:46:27;5.88;;;1.70;;
74375;SDS011;62812;55.188;61.302;2022-10-26T09:48:57;6.03;;;1.63;;
74375;SDS011;62812;55.188;61.302;2022-10-26T09:51:26;3.90;;;1.10;;
74375;SDS011;62812;55.188;61.302;2022-10-26T09:53:53;6.32;;;1.33;;
74375;SDS011;62812;55.188;61.302;2022-10-26T09:56:23;3.05;;;0.90;;
74375;SDS011;62812;55.188;61.302;2022-10-26T09:58:51;2.33;;;0.75;;
74375;SDS011;62812;55.188;61.302;2022-10-26T10:01:27;4.25;;;1.63;;
74375;SDS011;62812;55.188;61.302;2022-10-26T10:04:07;5.82;;;1.15;;
74375;SDS011;62812;55.188;61.302;2022-10-26T10:06:50;5.03;;;1.00;;
74375;SDS011;62812;55.188;61.302;2022-10-26T10:09:18;5.78;;;1.20;;
74375;SDS011;62812;55.188;61.302;2022-10-26T10:11:48;5.85;;;1.10;;
74375;SDS011;62812;55.188;61.302;2022-10-26T10:14:20;4.03;;;1.13;;
74375;SDS011;62812;55.188;61.302;2022-10-26T10:16:48;2.83;;;1.30;;
74375;SDS011;62812;55.188;61.302;2022-10-26T10:19:20;5.47;;;1.30;;
74375;SDS011;62812;55.188;61.302;2022-10-26T10:21:50;6.90;;;1.00;;
74375;SDS011;62812;55.188;61.302;2022-10-26T10:24:21;2.40;;;0.77;;
74375;SDS011;62812;55.188;61.302;2022-10-26T10:26:56;2.97;;;0.70;;
74375;SDS011;62812;55.188;61.302;2022-10-26T10:29:25;3.25;;;1.17;;
74375;SDS011;62812;55.188;61.302;2022-10-26T10:31:55;6.18;;;1.10;;
74375;SDS011;62812;55.188;61.302;2022-10-26T10:34:22;3.88;;;0.90;;
74375;SDS011;62812;55.188;61.302;2022-10-26T10:36:49;3.88;;;1.27;;
74375;SDS011;62812;55.188;61.302;2022-10-26T10:39:30;4.47;;;1.55;;
74375;SDS011;62812;55.188;61.302;2022-10-26T10:42:02;3.80;;;0.90;;
74375;SDS011;62812;55.188;61.302;2022-10-26T10:44:29;6.65;;;2.35;;
74375;SDS011;62812;55.188;61.302;2022-10-26T10:47:01;8.85;;;3.08;;
74375;SDS011;62812;55.188;61.302;2022-10-26T10:49:30;10.43;;;4.07;;
74375;SDS011;62812;55.188;61.302;2022-10-26T10:51:57;9.05;;;4.40;;
74375;SDS011;62812;55.188;61.302;2022-10-26T10:54:25;11.25;;;4.70;;
74375;SDS011;62812;55.188;61.302;2022-10-26T10:56:54;10.25;;;5.07;;
74375;SDS011;62812;55.188;61.302;2022-10-26T10:59:36;12.05;;;4.82;;
74375;SDS011;62812;55.188;61.302;2022-10-26T11:04:51;8.55;;;2.97;;
74375;SDS011;62812;55.188;61.302;2022-10-26T11:07:28;6.20;;;2.33;;
74375;SDS011;62812;55.188;61.302;2022-10-26T11:09:59;15.45;;;6.50;;
74375;SDS011;62812;55.188;61.302;2022-10-26T11:12:29;13.18;;;6.07;;
74375;SDS011;62812;55.188;61.302;2022-10-26T11:15:01;19.38;;;8.23;;
74375;SDS011;62812;55.188;61.302;2022-10-26T11:17:32;16.98;;;7.40;;
74375;SDS011;62812;55.188;61.302;2022-10-26T11:20:15;32.80;;;16.35;;
74375;SDS011;62812;55.188;61.302;2022-10-26T11:25:24;49.08;;;24.42;;
74375;SDS011;62812;55.188;61.302;2022-10-26T11:27:54;53.95;;;26.02;;
74375;SDS011;62812;55.188;61.302;2022-10-26T11:30:26;28.45;;;14.50;;
74375;SDS011;62812;55.188;61.302;2022-10-26T11:32:55;26.00;;;12.55;;
74375;SDS011;62812;55.188;61.302;2022-10-26T11:35:26;29.98;;;12.93;;
74375;SDS011;62812;55.188;61.302;2022-10-26T11:37:57;27.08;;;11.75;;
74375;SDS011;62812;55.188;61.302;2022-10-26T11:40:33;16.00;;;8.45;;
74375;SDS011;62812;55.188;61.302;2022-10-26T11:43:07;22.80;;;8.85;;
74375;SDS011;62812;55.188;61.302;2022-10-26T11:49:09;23.35;;;9.18;;
74375;SDS011;62812;55.188;61.302;2022-10-26T11:51:48;16.10;;;6.15;;
74375;SDS011;62812;55.188;61.302;2022-10-26T11:54:23;12.25;;;5.80;;
74375;SDS011;62812;55.188;61.302;2022-10-26T11:57:12;19.42;;;7.30;;
74375;SDS011;62812;55.188;61.302;2022-10-26T11:59:51;18.73;;;6.95;;
74375;SDS011;62812;55.188;61.302;2022-10-26T12:02:22;17.10;;;7.47;;
74375;SDS011;62812;55.188;61.302;2022-10-26T12:11:01;21.85;;;9.20;;
74375;SDS011;62812;55.188;61.302;2022-10-26T12:14:02;18.15;;;9.18;;
74375;SDS011;62812;55.188;61.302;2022-10-26T12:16:55;16.05;;;8.32;;
74375;SDS011;62812;55.188;61.302;2022-10-26T12:20:04;30.75;;;12.95;;
74375;SDS011;62812;55.188;61.302;2022-10-26T12:22:47;29.50;;;14.35;;
74375;SDS011;62812;55.188;61.302;2022-10-26T12:25:22;21.42;;;9.88;;
74375;SDS011;62812;55.188;61.302;2022-10-26T13:01:49;14.65;;;5.47;;
74375;SDS011;62812;55.188;61.302;2022-10-26T13:07:38;7.88;;;3.08;;
74375;SDS011;62812;55.188;61.302;2022-10-26T13:10:16;9.93;;;4.70;;
74375;SDS011;62812;55.188;61.302;2022-10-26T13:12:47;7.85;;;2.97;;
74375;SDS011;62812;55.188;61.302;2022-10-26T13:23:57;6.30;;;3.03;;
74375;SDS011;62812;55.188;61.302;2022-10-26T13:26:31;8.68;;;3.38;;
74375;SDS011;62812;55.188;61.302;2022-10-26T13:29:18;6.97;;;3.58;;
74375;SDS011;62812;55.188;61.302;2022-10-26T13:31:51;7.65;;;2.95;;
74375;SDS011;62812;55.188;61.302;2022-10-26T13:34:19;8.65;;;3.13;;
74375;SDS011;62812;55.188;61.302;2022-10-26T13:36:58;13.23;;;3.63;;
74375;SDS011;62812;55.188;61.302;2022-10-26T13:39:31;7.13;;;2.47;;
74375;SDS011;62812;55.188;61.302;2022-10-26T13:42:00;5.95;;;1.50;;
74375;SDS011;62812;55.188;61.302;2022-10-26T13:44:29;4.57;;;1.95;;
74375;SDS011;62812;55.188;61.302;2022-10-26T13:47:01;7.78;;;2.85;;
74375;SDS011;62812;55.188;61.302;2022-10-26T13:49:32;8.43;;;2.83;;
74375;SDS011;62812;55.188;61.302;2022-10-26T13:52:04;7.30;;;2.63;;
74375;SDS011;62812;55.188;61.302;2022-10-26T13:54:38;6.20;;;2.60;;
74375;SDS011;62812;55.188;61.302;2022-10-26T13:57:12;8.68;;;2.30;;
74375;SDS011;62812;55.188;61.302;2022-10-26T13:59:44;6.65;;;2.55;;
74375;SDS011;62812;55.188;61.302;2022-10-26T14:02:16;5.55;;;2.17;;
74375;SDS011;62812;55.188;61.302;2022-10-26T14:04:47;9.77;;;2.67;;
74375;SDS011;62812;55.188;61.302;2022-10-26T14:07:22;6.00;;;2.60;;
74375;SDS011;62812;55.188;61.302;2022-10-26T14:09:52;6.70;;;2.88;;
74375;SDS011;62812;55.188;61.302;2022-10-26T14:12:20;5.60;;;2.35;;
74375;SDS011;62812;55.188;61.302;2022-10-26T14:14:47;4.40;;;1.35;;
74375;SDS011;62812;55.188;61.302;2022-10-26T14:17:17;7.07;;;2.20;;
74375;SDS011;62812;55.188;61.302;2022-10-26T14:19:45;5.35;;;1.90;;
74375;SDS011;62812;55.188;61.302;2022-10-26T14:22:25;5.70;;;2.20;;
74375;SDS011;62812;55.188;61.302;2022-10-26T14:24:53;3.42;;;1.38;;
74375;SDS011;62812;55.188;61.302;2022-10-26T14:27:21;3.85;;;1.35;;
74375;SDS011;62812;55.188;61.302;2022-10-26T14:29:50;4.07;;;1.65;;
74375;SDS011;62812;55.188;61.302;2022-10-26T14:32:21;4.93;;;1.58;;
74375;SDS011;62812;55.188;61.302;2022-10-26T14:34:51;13.20;;;2.70;;
74375;SDS011;62812;55.188;61.302;2022-10-26T14:37:22;12.15;;;2.78;;
74375;SDS011;62812;55.188;61.302;2022-10-26T14:40:03;5.10;;;2.13;;
74375;SDS011;62812;55.188;61.302;2022-10-26T14:42:33;5.35;;;2.15;;
74375;SDS011;62812;55.188;61.302;2022-10-26T14:45:04;3.90;;;1.38;;
74375;SDS011;62812;55.188;61.302;2022-10-26T14:47:31;4.97;;;1.67;;
74375;SDS011;62812;55.188;61.302;2022-10-26T14:50:00;5.03;;;1.50;;
74375;SDS011;62812;55.188;61.302;2022-10-26T14:52:28;4.47;;;1.45;;
74375;SDS011;62812;55.188;61.302;2022-10-26T14:54:58;4.38;;;1.67;;
74375;SDS011;62812;55.188;61.302;2022-10-26T14:57:31;5.55;;;1.60;;
74375;SDS011;62812;55.188;61.302;2022-10-26T15:00:03;3.53;;;1.30;;
74375;SDS011;62812;55.188;61.302;2022-10-26T15:02:37;4.47;;;1.65;;
74375;SDS011;62812;55.188;61.302;2022-10-26T15:05:15;2.33;;;1.05;;
74375;SDS011;62812;55.188;61.302;2022-10-26T15:07:47;3.47;;;1.17;;
74375;SDS011;62812;55.188;61.302;2022-10-26T15:13:18;2.65;;;1.23;;
74375;SDS011;62812;55.188;61.302;2022-10-26T15:15:51;5.28;;;1.60;;
74375;SDS011;62812;55.188;61.302;2022-10-26T15:18:19;4.18;;;1.38;;
74375;SDS011;62812;55.188;61.302;2022-10-26T15:20:50;2.88;;;1.00;;
74375;SDS011;62812;55.188;61.302;2022-10-26T15:23:18;3.20;;;0.70;;
74375;SDS011;62812;55.188;61.302;2022-10-26T15:25:50;3.83;;;1.20;;
74375;SDS011;62812;55.188;61.302;2022-10-26T15:28:20;4.85;;;1.42;;
74375;SDS011;62812;55.188;61.302;2022-10-26T15:30:58;5.72;;;1.42;;
74375;SDS011;62812;55.188;61.302;2022-10-26T15:33:27;4.47;;;1.20;;
74375;SDS011;62812;55.188;61.302;2022-10-26T15:36:06;5.35;;;1.67;;
74375;SDS011;62812;55.188;61.302;2022-10-26T15:38:38;7.80;;;1.40;;
74375;SDS011;62812;55.188;61.302;2022-10-26T15:41:10;5.82;;;1.55;;
74375;SDS011;62812;55.188;61.302;2022-10-26T15:43:39;6.78;;;1.73;;
74375;SDS011;62812;55.188;61.302;2022-10-26T15:46:06;7.20;;;1.52;;
74375;SDS011;62812;55.188;61.302;2022-10-26T15:48:33;3.80;;;1.25;;
74375;SDS011;62812;55.188;61.302;2022-10-26T15:51:00;3.85;;;1.40;;
74375;SDS011;62812;55.188;61.302;2022-10-26T15:53:27;5.57;;;1.00;;
74375;SDS011;62812;55.188;61.302;2022-10-26T15:55:55;5.32;;;1.85;;
74375;SDS011;62812;55.188;61.302;2022-10-26T15:58:25;3.17;;;0.88;;
74375;SDS011;62812;55.188;61.302;2022-10-26T16:00:53;4.00;;;1.48;;
74375;SDS011;62812;55.188;61.302;2022-10-26T16:03:23;5.03;;;1.60;;
74375;SDS011;62812;55.188;61.302;2022-10-26T16:05:54;4.78;;;1.33;;
74375;SDS011;62812;55.188;61.302;2022-10-26T16:08:29;5.38;;;1.77;;
74375;SDS011;62812;55.188;61.302;2022-10-26T16:10:57;5.43;;;1.80;;
74375;SDS011;62812;55.188;61.302;2022-10-26T16:16:02;2.88;;;0.95;;
74375;SDS011;62812;55.188;61.302;2022-10-26T16:18:29;6.05;;;1.70;;
74375;SDS011;62812;55.188;61.302;2022-10-26T16:20:56;7.85;;;2.00;;
74375;SDS011;62812;55.188;61.302;2022-10-26T16:23:23;5.82;;;1.65;;
74375;SDS011;62812;55.188;61.302;2022-10-26T16:25:53;5.70;;;1.30;;
74375;SDS011;62812;55.188;61.302;2022-10-26T16:28:19;7.38;;;2.20;;